Terminal Aerodrome Forecast
Issued by NWS North Platte, NE

Home | Current Version | Previous Version | Text Only | Print | Product List | Glossary Off
Versions: 1 2 3 4 5 6 7 8 9 10 11 12 13 14 15 16 17 18 19 20

979
FTUS43 KLBF 220520
TAFVTN
TAF
KVTN 220520Z 2206/2306 11013KT P6SM VCSH OVC060
     FM220800 14014G21KT P6SM VCSH OVC040
     FM221100 15014G22KT P6SM OVC070
     FM221700 18019G27KT P6SM BKN120
     FM230100 18012KT P6SM BKN200=

USA.gov is the U.S. government's official web portal to all federal, state and local government web resources and services.